Time;durP1;ratioP1;P1;durP2;ratioP2;P2;SDS_P1;SDS_P2;PMS_P1;PMS_P2;Temp;Humidity;BMP_temperature;BMP_pressure;BME280_temperature;BME280_humidity;BME280_pressure;Samples;Min_cycle;Max_cycle;Signal;HPM_P1;HPM_P2
2023/03/03 00:00:07;;;;;;;51.20;24.55;;;;;;;1.90;74.42;99804.44;343955;28;1059;-80
2023/03/03 00:00:19;;;;;;;53.00;24.77;;;;;;;1.90;74.58;99804.44;344008;28;877;-80
2023/03/03 00:00:31;;;;;;;53.63;25.63;;;;;;;1.90;74.28;99801.88;343875;28;1094;-80
2023/03/03 00:00:43;;;;;;;54.45;25.33;;;;;;;1.92;74.25;99799.31;342609;28;1004;-80
2023/03/03 00:00:55;;;;;;;55.80;25.05;;;;;;;1.86;74.60;99800.16;343369;28;1095;-80
2023/03/03 00:01:08;;;;;;;54.15;24.88;;;;;;;1.80;74.74;99800.13;343813;28;1448;-80
2023/03/03 00:01:20;;;;;;;51.83;24.48;;;;;;;1.74;74.72;99795.81;344085;28;1239;-80
2023/03/03 00:01:32;;;;;;;52.00;24.58;;;;;;;1.73;75.04;99794.13;343789;28;1027;-80
2023/03/03 00:01:44;;;;;;;53.85;25.02;;;;;;;1.73;75.03;99793.22;344005;28;1019;-80
2023/03/03 00:01:56;;;;;;;52.13;25.08;;;;;;;1.75;74.79;99796.66;343243;28;866;-80
2023/03/03 00:02:08;;;;;;;51.80;24.75;;;;;;;1.78;74.39;99791.56;343101;28;1184;-80
2023/03/03 00:02:20;;;;;;;52.35;24.42;;;;;;;1.75;74.49;99788.97;341246;29;1308;-80
2023/03/03 00:02:32;;;;;;;55.05;25.58;;;;;;;1.76;74.22;99795.81;341060;29;1167;-80
2023/03/03 00:02:44;;;;;;;56.55;25.60;;;;;;;1.73;74.42;99790.66;341152;28;1029;-80
2023/03/03 00:03:05;;;;;;;53.88;25.27;;;;;;;1.70;74.45;99798.34;342381;28;1032;-80
2023/03/03 00:03:20;;;;;;;52.17;25.58;;;;;;;1.69;74.38;99797.50;341112;29;1286;-80
2023/03/03 00:03:33;;;;;;;50.58;25.58;;;;;;;1.68;73.90;99797.50;341492;29;968;-80
2023/03/03 00:03:45;;;;;;;50.15;25.65;;;;;;;1.67;74.54;99795.75;341078;29;1378;-80
2023/03/03 00:03:57;;;;;;;51.53;25.98;;;;;;;1.65;73.64;99794.91;341795;28;1123;-80
2023/03/03 00:04:09;;;;;;;50.72;24.90;;;;;;;1.64;73.32;99795.75;342898;28;1102;-80
2023/03/03 00:04:21;;;;;;;48.75;24.17;;;;;;;1.60;73.22;99793.16;342691;28;1521;-80
2023/03/03 00:04:33;;;;;;;48.30;24.27;;;;;;;1.56;72.95;99786.31;342821;28;1080;-80
2023/03/03 00:04:45;;;;;;;49.00;24.65;;;;;;;1.50;73.03;99791.41;343286;28;1221;-80
2023/03/03 00:04:57;;;;;;;50.80;24.92;;;;;;;1.46;72.86;99794.78;342342;28;1223;-80
2023/03/03 00:05:14;;;;;;;53.38;25.08;;;;;;;1.36;72.84;99795.56;342561;28;1071;-80
2023/03/03 00:05:26;;;;;;;52.88;24.70;;;;;;;1.33;72.46;99798.13;342723;28;1115;-80
2023/03/03 00:05:38;;;;;;;51.65;25.02;;;;;;;1.37;72.44;99794.75;342916;28;1999;-80
2023/03/03 00:05:51;;;;;;;51.42;25.17;;;;;;;1.31;72.41;99793.00;342973;28;1135;-80
2023/03/03 00:06:04;;;;;;;55.45;25.67;;;;;;;1.26;72.13;99788.66;342789;28;1193;-80
2023/03/03 00:06:16;;;;;;;53.03;25.67;;;;;;;1.30;73.09;99793.81;342429;28;1005;-80
2023/03/03 00:06:29;;;;;;;53.05;25.75;;;;;;;1.29;72.03;99791.25;342587;28;1051;-80
2023/03/03 00:06:43;;;;;;;51.60;25.50;;;;;;;1.26;72.57;99788.66;344531;28;763;-80
2023/03/03 00:06:55;;;;;;;51.33;25.75;;;;;;;1.22;73.29;99797.19;344328;28;1072;-80
2023/03/03 00:07:07;;;;;;;50.70;25.33;;;;;;;1.17;73.53;99795.44;344199;28;1148;-80
2023/03/03 00:07:21;;;;;;;50.83;25.63;;;;;;;1.18;74.00;99789.47;344613;28;1171;-81
2023/03/03 00:07:33;;;;;;;49.58;25.10;;;;;;;1.11;74.03;99795.41;344455;28;836;-80
2023/03/03 00:07:46;;;;;;;48.87;24.70;;;;;;;1.12;74.75;99794.53;344033;28;1072;-80
2023/03/03 00:07:59;;;;;;;49.83;24.42;;;;;;;1.05;74.69;99795.34;344272;28;1032;-80
2023/03/03 00:08:11;;;;;;;50.28;24.25;;;;;;;0.91;74.72;99799.50;342989;28;1037;-80
2023/03/03 00:08:24;;;;;;;50.50;23.98;;;;;;;0.93;75.33;99797.81;344258;28;749;-80
2023/03/03 00:08:37;;;;;;;46.78;23.45;;;;;;;1.04;75.58;99793.63;344456;28;807;-80
2023/03/03 00:08:49;;;;;;;49.00;24.00;;;;;;;1.07;75.30;99798.78;342837;28;1215;-80
2023/03/03 00:09:01;;;;;;;51.17;24.23;;;;;;;1.02;75.91;99802.97;342813;28;1150;-80
2023/03/03 00:09:13;;;;;;;51.55;23.88;;;;;;;1.04;76.03;99791.06;341437;29;1146;-80
2023/03/03 00:09:25;;;;;;;50.30;23.50;;;;;;;1.07;75.83;99798.78;341618;29;1215;-80
2023/03/03 00:09:37;;;;;;;48.83;24.08;;;;;;;1.06;75.37;99783.41;341627;29;1100;-80
2023/03/03 00:09:49;;;;;;;47.63;24.65;;;;;;;0.92;76.20;99796.94;341902;29;1288;-80
2023/03/03 00:10:01;;;;;;;50.90;24.80;;;;;;;0.93;75.56;99785.00;341570;28;1226;-80
2023/03/03 00:10:13;;;;;;;52.15;24.75;;;;;;;0.94;76.10;99790.13;342289;28;1132;-80
2023/03/03 00:10:25;;;;;;;49.72;24.40;;;;;;;0.96;75.24;99803.78;342287;28;1033;-80
2023/03/03 00:10:38;;;;;;;48.65;24.73;;;;;;;1.00;75.04;99786.75;342402;28;1051;-80
2023/03/03 00:10:51;;;;;;;51.53;24.80;;;;;;;1.02;75.63;99792.75;342372;28;1044;-80
2023/03/03 00:11:05;;;;;;;54.13;24.70;;;;;;;1.02;75.30;99795.31;342275;28;1148;-80
2023/03/03 00:11:17;;;;;;;52.92;24.50;;;;;;;0.90;75.13;99787.53;342013;28;1064;-80
2023/03/03 00:11:29;;;;;;;52.38;24.88;;;;;;;0.79;75.34;99785.72;342966;28;848;-80
2023/03/03 00:11:41;;;;;;;52.28;24.55;;;;;;;0.78;74.64;99791.69;343470;28;1043;-80
2023/03/03 00:11:56;;;;;;;50.45;24.67;;;;;;;0.73;75.57;99784.84;343989;28;1023;-80
2023/03/03 00:12:29;;;;;;;51.83;25.08;;;;;;;0.79;74.86;99795.97;343916;28;1075;-80
2023/03/03 00:12:47;;;;;;;47.10;24.08;;;;;;;0.84;75.33;99793.44;342567;28;1164;-80
2023/03/03 00:12:59;;;;;;;48.38;22.98;;;;;;;0.89;75.24;99796.06;342452;28;1120;-80
2023/03/03 00:13:22;;;;;;;46.75;22.55;;;;;;;0.94;74.61;99791.81;342507;28;1181;-80
2023/03/03 00:13:54;;;;;;;45.20;22.08;;;;;;;1.02;74.79;99795.31;345670;28;848;-80
2023/03/03 00:14:21;;;;;;;44.50;22.17;;;;;;;1.00;74.74;99794.44;345372;28;1032;-80
2023/03/03 00:14:33;;;;;;;48.67;23.42;;;;;;;1.02;75.07;99797.88;345237;28;1009;-80
2023/03/03 00:14:45;;;;;;;49.40;24.02;;;;;;;1.01;74.94;99791.03;345339;28;1148;-80
2023/03/03 00:14:57;;;;;;;46.33;23.38;;;;;;;1.00;74.47;99799.56;344387;28;1019;-80
2023/03/03 00:15:15;;;;;;;47.03;23.50;;;;;;;1.01;74.45;99798.72;344473;28;1087;-80
2023/03/03 00:15:28;;;;;;;50.75;24.17;;;;;;;1.02;74.65;99792.75;343730;28;1095;-80
2023/03/03 00:15:40;;;;;;;50.15;24.23;;;;;;;1.08;74.61;99797.91;343265;28;870;-80
2023/03/03 00:16:08;;;;;;;49.25;23.23;;;;;;;1.11;74.59;99792.84;342586;28;1130;-80
2023/03/03 00:16:24;;;;;;;51.22;22.63;;;;;;;1.16;74.77;99793.72;342850;28;1170;-80
2023/03/03 00:16:37;;;;;;;51.67;23.35;;;;;;;1.22;74.15;99786.94;342419;28;1030;-80
2023/03/03 00:16:49;;;;;;;50.90;23.42;;;;;;;1.26;74.45;99788.66;342977;28;954;-80
2023/03/03 00:17:17;;;;;;;48.83;22.83;;;;;;;1.32;74.44;99793.84;342949;28;1058;-80
2023/03/03 00:17:32;;;;;;;48.90;22.60;;;;;;;1.30;73.99;99793.81;343267;28;1110;-80
2023/03/03 00:17:44;;;;;;;45.75;22.52;;;;;;;1.27;73.21;99793.81;343444;28;1344;-80
2023/03/03 00:17:58;;;;;;;47.55;23.45;;;;;;;1.23;73.44;99788.63;343022;28;1019;-80
2023/03/03 00:18:30;;;;;;;48.85;23.85;;;;;;;1.18;74.29;99794.56;342991;28;1091;-80
2023/03/03 00:18:45;;;;;;;48.00;22.40;;;;;;;1.11;74.02;99792.84;343316;28;855;-80
2023/03/03 00:18:58;;;;;;;47.33;22.58;;;;;;;1.12;73.88;99794.53;342959;28;1003;-80
2023/03/03 00:19:16;;;;;;;46.70;23.40;;;;;;;1.14;74.33;99790.28;342883;28;1055;-80
2023/03/03 00:19:38;;;;;;;52.65;24.77;;;;;;;1.17;73.93;99794.59;342934;28;1038;-80
2023/03/03 00:19:51;;;;;;;56.47;24.52;;;;;;;1.20;74.31;99800.56;343110;28;1175;-80
2023/03/03 00:20:22;;;;;;;50.10;23.65;;;;;;;1.29;74.34;99791.25;343175;28;1024;-80
2023/03/03 00:20:37;;;;;;;49.30;22.85;;;;;;;1.33;74.29;99793.00;342699;28;1048;-80
2023/03/03 00:20:53;;;;;;;50.22;22.95;;;;;;;1.26;73.88;99791.22;342886;28;1040;-80
2023/03/03 00:21:21;;;;;;;48.20;23.40;;;;;;;1.13;73.97;99793.69;342982;28;1187;-80
2023/03/03 00:21:41;;;;;;;45.75;23.10;;;;;;;1.05;73.21;99797.91;342972;28;1046;-80
2023/03/03 00:21:57;;;;;;;44.92;23.42;;;;;;;1.03;73.94;99799.59;342866;28;1197;-80
2023/03/03 00:22:26;;;;;;;43.72;22.73;;;;;;;0.90;73.29;99802.88;342848;28;1088;-80
2023/03/03 00:22:39;;;;;;;49.28;23.50;;;;;;;0.89;74.37;99796.91;343183;28;1099;-80
2023/03/03 00:22:51;;;;;;;51.58;24.05;;;;;;;0.86;74.36;99791.75;343574;28;1202;-80
2023/03/03 00:23:11;;;;;;;51.67;24.23;;;;;;;0.95;73.82;99801.22;343030;28;1465;-80
2023/03/03 00:23:34;;;;;;;48.50;23.20;;;;;;;0.86;73.89;99803.69;343005;28;1192;-80
2023/03/03 00:23:46;;;;;;;49.33;24.00;;;;;;;0.89;74.53;99801.19;342824;28;1200;-80
2023/03/03 00:24:04;;;;;;;51.03;24.15;;;;;;;0.96;73.75;99802.94;342812;28;1107;-80
2023/03/03 00:24:20;;;;;;;48.30;23.52;;;;;;;1.01;74.37;99798.72;342884;28;1357;-80
2023/03/03 00:24:36;;;;;;;47.28;22.98;;;;;;;1.02;73.88;99802.97;342711;28;1480;-80
2023/03/03 00:24:48;;;;;;;48.85;23.38;;;;;;;1.05;74.34;99800.47;343119;28;1201;-80
2023/03/03 00:25:28;;;;;;;49.28;23.88;;;;;;;1.06;73.78;99799.59;343069;28;1165;-80
2023/03/03 00:25:44;;;;;;;48.40;23.27;;;;;;;1.12;74.23;99799.66;340899;28;1100;-80
2023/03/03 00:25:58;;;;;;;46.33;23.15;;;;;;;1.18;73.71;99799.69;342891;28;847;-80
2023/03/03 00:26:26;;;;;;;46.83;23.00;;;;;;;1.29;74.08;99794.69;343203;28;783;-80
2023/03/03 00:26:40;;;;;;;48.42;23.80;;;;;;;1.33;73.87;99798.13;342842;28;1040;-80
2023/03/03 00:26:55;;;;;;;48.45;24.08;;;;;;;1.38;73.71;99799.84;342845;28;1108;-80
2023/03/03 00:27:44;;;;;;;48.40;23.13;;;;;;;1.30;73.33;99796.38;341323;28;1832;-78
2023/03/03 00:28:35;;;;;;;47.50;23.90;;;;;;;1.30;73.34;99798.09;340830;28;1795;-73
2023/03/03 00:28:50;;;;;;;46.70;23.25;;;;;;;1.27;74.13;99808.28;341158;28;1399;-72
2023/03/03 00:29:29;;;;;;;45.97;22.80;;;;;;;1.26;73.78;99809.16;342254;28;1115;-71
2023/03/03 00:29:55;;;;;;;48.90;23.63;;;;;;;1.26;74.02;99807.44;339592;29;1176;-71
2023/03/03 00:30:24;;;;;;;47.90;23.75;;;;;;;1.29;74.34;99801.47;339166;29;1645;-71
2023/03/03 00:30:36;;;;;;;46.58;23.98;;;;;;;1.24;74.21;99808.28;338390;29;1227;-73
2023/03/03 00:30:48;;;;;;;49.22;24.33;;;;;;;1.13;73.62;99806.50;338293;29;1323;-73
2023/03/03 00:31:02;;;;;;;50.45;24.55;;;;;;;1.09;73.64;99802.22;338762;29;1209;-73
2023/03/03 00:31:21;;;;;;;49.45;24.10;;;;;;;1.06;73.65;99807.28;339538;29;1175;-73
2023/03/03 00:31:35;;;;;;;52.28;24.73;;;;;;;1.03;74.01;99802.16;339674;29;1185;-71
2023/03/03 00:31:47;;;;;;;54.50;25.38;;;;;;;0.98;73.82;99806.38;339645;29;1129;-71
2023/03/03 00:32:17;;;;;;;50.20;24.42;;;;;;;1.02;74.18;99802.97;339493;29;1196;-71
2023/03/03 00:32:42;;;;;;;46.03;23.27;;;;;;;1.05;74.21;99807.25;339143;29;1785;-71
2023/03/03 00:32:55;;;;;;;47.65;23.38;;;;;;;1.08;73.81;99800.47;339054;29;1222;-71
2023/03/03 00:33:27;;;;;;;47.88;23.42;;;;;;;1.13;74.17;99805.66;339578;29;1123;-71
2023/03/03 00:33:49;;;;;;;47.30;23.70;;;;;;;1.18;74.05;99804.81;339996;29;1099;-70
2023/03/03 00:34:19;;;;;;;45.97;23.50;;;;;;;1.17;74.57;99803.13;338422;29;1024;-71
2023/03/03 00:34:32;;;;;;;51.03;23.90;;;;;;;1.25;74.92;99799.75;338821;29;1273;-71
2023/03/03 00:34:44;;;;;;;50.72;23.98;;;;;;;1.26;74.58;99804.03;339895;29;1252;-72
2023/03/03 00:35:17;;;;;;;47.55;23.08;;;;;;;1.24;73.90;99800.59;339557;29;1052;-71
2023/03/03 00:35:38;;;;;;;49.33;23.70;;;;;;;1.26;74.15;99801.47;339783;29;1725;-71
2023/03/03 00:35:50;;;;;;;47.42;23.17;;;;;;;1.30;74.44;99804.06;341011;28;1219;-72
2023/03/03 00:36:27;;;;;;;48.13;23.92;;;;;;;1.41;73.55;99804.16;340908;28;1059;-72
2023/03/03 00:36:40;;;;;;;49.70;23.50;;;;;;;1.47;74.37;99800.75;338421;29;1055;-70
2023/03/03 00:36:54;;;;;;;49.05;24.08;;;;;;;1.48;74.29;99803.34;339502;29;1426;-71
2023/03/03 00:37:33;;;;;;;47.53;23.98;;;;;;;1.53;74.05;99796.56;339753;29;896;-70
2023/03/03 00:37:53;;;;;;;48.38;24.20;;;;;;;1.50;74.29;99799.06;339237;29;1254;-70
2023/03/03 00:38:13;;;;;;;49.83;25.05;;;;;;;1.50;74.07;99796.53;339500;29;1225;-71
2023/03/03 00:38:26;;;;;;;52.00;26.33;;;;;;;1.45;74.21;99800.78;338277;29;1116;-71
2023/03/03 00:38:38;;;;;;;53.70;26.35;;;;;;;1.49;73.35;99799.94;338236;29;1054;-71
2023/03/03 00:38:50;;;;;;;53.15;27.25;;;;;;;1.55;73.99;99794.84;338119;29;1174;-71
2023/03/03 00:39:22;;;;;;;53.97;26.85;;;;;;;1.56;73.10;99799.13;336902;29;1093;-71
2023/03/03 00:39:36;;;;;;;55.67;27.40;;;;;;;1.55;73.14;99797.41;337250;29;1208;-71
2023/03/03 00:39:48;;;;;;;55.38;27.08;;;;;;;1.49;73.12;99793.94;337286;29;1131;-71
2023/03/03 00:40:22;;;;;;;59.03;27.73;;;;;;;1.43;73.44;99791.34;337382;29;1150;-71
2023/03/03 00:40:35;;;;;;;57.55;27.65;;;;;;;1.33;73.46;99787.88;340615;29;1199;-71
2023/03/03 00:40:47;;;;;;;60.20;27.50;;;;;;;1.30;73.66;99787.84;340066;29;1377;-71
2023/03/03 00:41:00;;;;;;;60.95;28.73;;;;;;;1.29;73.23;99786.13;339439;29;1725;-71
2023/03/03 00:41:26;;;;;;;57.63;28.70;;;;;;;1.14;73.44;99797.13;338946;29;1396;-71
2023/03/03 00:41:38;;;;;;;59.25;27.90;;;;;;;1.03;74.27;99799.59;338837;29;1602;-71
2023/03/03 00:41:50;;;;;;;60.15;28.17;;;;;;;0.99;74.06;99798.72;339578;29;1240;-71
2023/03/03 00:42:12;;;;;;;61.20;29.02;;;;;;;1.08;74.84;99792.78;339901;29;1088;-71
2023/03/03 00:42:26;;;;;;;57.95;26.90;;;;;;;1.19;74.68;99801.44;338826;29;1833;-71
2023/03/03 00:42:38;;;;;;;54.90;25.85;;;;;;;1.17;74.52;99797.16;339237;29;1322;-71
2023/03/03 00:42:53;;;;;;;56.33;26.90;;;;;;;1.12;74.96;99799.66;339686;29;1257;-71
2023/03/03 00:43:21;;;;;;;58.75;28.77;;;;;;;1.19;74.83;99795.47;339437;29;1034;-71
2023/03/03 00:43:35;;;;;;;55.30;26.40;;;;;;;1.25;74.17;99795.50;339525;29;1239;-71
2023/03/03 00:43:47;;;;;;;54.83;26.35;;;;;;;1.20;74.49;99794.59;338417;29;1927;-71
2023/03/03 00:44:31;;;;;;;57.60;27.27;;;;;;;1.14;74.73;99795.41;339357;29;1655;-72
2023/03/03 00:44:56;;;;;;;51.45;25.88;;;;;;;1.23;73.93;99797.19;339455;29;1918;-73
2023/03/03 00:45:27;;;;;;;52.40;25.05;;;;;;;1.39;73.96;99787.91;339985;29;1099;-72
2023/03/03 00:45:44;;;;;;;54.58;26.85;;;;;;;1.45;73.51;99787.97;339149;29;1936;-70
2023/03/03 00:45:57;;;;;;;54.22;26.98;;;;;;;1.49;73.77;99787.13;338803;29;2032;-73
2023/03/03 00:46:17;;;;;;;53.78;26.30;;;;;;;1.52;73.24;99794.81;339340;29;1121;-72
2023/03/03 00:46:29;;;;;;;53.33;24.92;;;;;;;1.56;73.21;99790.59;339618;29;1048;-72
2023/03/03 00:46:41;;;;;;;51.58;25.02;;;;;;;1.59;72.96;99791.47;339233;29;1067;-70
2023/03/03 00:46:55;;;;;;;50.88;25.25;;;;;;;1.63;72.62;99789.78;340096;29;1931;-70
2023/03/03 00:47:35;;;;;;;50.58;25.65;;;;;;;1.66;72.24;99791.50;339452;29;1197;-70
2023/03/03 00:47:47;;;;;;;49.97;25.70;;;;;;;1.70;72.61;99793.22;338659;29;1744;-71
2023/03/03 00:48:17;;;;;;;48.90;24.80;;;;;;;1.73;72.62;99793.22;340231;29;1736;-73
2023/03/03 00:48:50;;;;;;;47.05;23.30;;;;;;;1.47;73.64;99796.50;339991;29;1041;-71
2023/03/03 00:49:21;;;;;;;47.78;23.73;;;;;;;1.46;73.83;99793.94;339410;29;1233;-71
2023/03/03 00:49:33;;;;;;;48.78;24.00;;;;;;;1.41;73.90;99791.34;339850;29;1235;-71
2023/03/03 00:49:45;;;;;;;50.00;24.98;;;;;;;1.37;74.73;99789.63;339345;29;1349;-71
2023/03/03 00:50:06;;;;;;;54.45;26.05;;;;;;;1.43;74.07;99792.22;339433;29;1044;-71
2023/03/03 00:50:30;;;;;;;52.08;24.95;;;;;;;1.42;74.54;99798.19;338708;29;1974;-72
2023/03/03 00:50:42;;;;;;;50.38;25.60;;;;;;;1.25;74.26;99799.75;339341;29;1281;-71
2023/03/03 00:50:57;;;;;;;52.25;26.30;;;;;;;1.07;74.32;99791.09;339243;29;1251;-71
2023/03/03 00:51:24;;;;;;;53.67;26.50;;;;;;;0.97;74.66;99794.44;339433;29;1190;-71
2023/03/03 00:51:36;;;;;;;49.63;24.65;;;;;;;0.84;75.08;99802.81;339453;29;1322;-72
2023/03/03 00:51:48;;;;;;;52.22;24.70;;;;;;;0.81;75.84;99797.69;339358;29;1324;-72
2023/03/03 00:52:00;;;;;;;53.55;24.25;;;;;;;0.76;75.91;99800.19;339381;29;1110;-72
2023/03/03 00:52:17;;;;;;;50.63;24.23;;;;;;;0.67;76.52;99805.25;339507;29;1197;-73
2023/03/03 00:52:34;;;;;;;46.72;23.75;;;;;;;0.66;76.74;99796.69;338578;29;2651;-73
2023/03/03 00:53:01;;;;;;;46.70;23.77;;;;;;;0.36;76.88;99805.78;339808;29;1728;-73
2023/03/03 00:53:17;;;;;;;44.05;23.73;;;;;;;0.36;77.15;99802.34;338564;29;1756;-71
2023/03/03 00:53:30;;;;;;;49.83;23.10;;;;;;;0.39;76.99;99800.69;338194;29;1096;-71
2023/03/03 00:53:42;;;;;;;51.58;23.20;;;;;;;0.32;77.29;99798.91;338029;29;1182;-71
2023/03/03 00:53:55;;;;;;;50.00;22.88;;;;;;;0.34;76.91;99796.34;339727;29;1273;-71
2023/03/03 00:54:07;;;;;;;45.53;22.75;;;;;;;0.40;76.84;99796.41;339448;29;1212;-71
2023/03/03 00:54:19;;;;;;;45.55;22.35;;;;;;;0.46;76.55;99798.19;339576;29;961;-71
2023/03/03 00:54:31;;;;;;;47.55;22.45;;;;;;;0.49;76.07;99800.78;339712;29;2150;-71
2023/03/03 00:54:44;;;;;;;45.65;22.55;;;;;;;0.54;75.87;99800.00;339205;29;1848;-71
2023/03/03 00:54:56;;;;;;;46.25;22.55;;;;;;;0.53;75.77;99792.31;339555;29;1274;-71
2023/03/03 00:55:09;;;;;;;45.17;22.17;;;;;;;0.58;74.75;99793.19;339829;29;1181;-71
2023/03/03 00:55:21;;;;;;;45.92;22.50;;;;;;;0.52;74.99;99795.69;339702;29;1016;-71
2023/03/03 00:55:33;;;;;;;44.67;22.45;;;;;;;0.49;74.41;99800.78;339548;29;1203;-71
2023/03/03 00:55:47;;;;;;;43.13;22.45;;;;;;;0.47;74.32;99805.03;339653;29;1264;-72
2023/03/03 00:55:59;;;;;;;42.35;21.98;;;;;;;0.47;74.32;99802.47;339585;29;1092;-72
2023/03/03 00:56:11;;;;;;;40.83;21.60;;;;;;;0.42;75.11;99801.56;339860;29;1163;-72
2023/03/03 00:56:24;;;;;;;38.90;21.35;;;;;;;0.37;75.84;99806.63;339553;29;1079;-72
2023/03/03 00:56:37;;;;;;;41.22;22.10;;;;;;;0.36;76.11;99804.91;339778;29;1100;-72
2023/03/03 00:56:49;;;;;;;44.60;22.08;;;;;;;0.44;76.84;99799.88;339478;29;1264;-72
2023/03/03 00:57:01;;;;;;;49.97;22.75;;;;;;;0.52;76.71;99800.81;339595;29;1051;-72
2023/03/03 00:57:13;;;;;;;50.00;22.15;;;;;;;0.60;76.84;99799.19;339995;29;1037;-72
2023/03/03 00:57:25;;;;;;;44.55;21.10;;;;;;;0.66;76.42;99806.91;339725;29;1034;-72
2023/03/03 00:57:37;;;;;;;44.83;21.42;;;;;;;0.72;76.32;99793.34;338935;29;2107;-71
2023/03/03 00:57:49;;;;;;;45.75;21.58;;;;;;;0.76;76.31;99795.94;339485;29;1159;-73
2023/03/03 00:58:01;;;;;;;45.88;21.42;;;;;;;0.83;75.86;99801.97;339592;29;1097;-73
2023/03/03 00:58:14;;;;;;;44.15;21.20;;;;;;;0.86;75.85;99804.56;338913;29;1824;-74
2023/03/03 00:58:26;;;;;;;40.38;20.10;;;;;;;0.90;76.19;99800.31;340314;29;1073;-73
2023/03/03 00:58:38;;;;;;;40.92;20.15;;;;;;;0.96;76.17;99797.81;341022;28;1205;-70
2023/03/03 00:58:51;;;;;;;43.17;20.40;;;;;;;1.00;75.73;99802.13;339716;28;1190;-70
2023/03/03 00:59:03;;;;;;;42.78;20.45;;;;;;;1.03;75.43;99794.47;339709;29;1047;-74
2023/03/03 00:59:15;;;;;;;41.95;20.70;;;;;;;1.06;75.65;99802.16;339691;29;1031;-71
2023/03/03 00:59:26;;;;;;;44.17;21.88;;;;;;;1.11;74.85;99805.63;339717;29;1284;-71
2023/03/03 00:59:39;;;;;;;44.90;22.50;;;;;;;1.15;74.85;99799.69;339827;29;1279;-71
2023/03/03 00:59:51;;;;;;;45.72;22.75;;;;;;;1.17;75.33;99803.13;339330;29;1321;-72
2023/03/03 01:00:04;;;;;;;42.90;21.77;;;;;;;1.20;75.06;99800.56;339749;29;1072;-72
2023/03/03 01:00:16;;;;;;;41.30;21.15;;;;;;;1.24;75.36;99803.16;339712;29;1114;-71
2023/03/03 01:00:28;;;;;;;41.60;21.20;;;;;;;1.27;74.84;99803.19;339652;29;1078;-70
2023/03/03 01:00:41;;;;;;;42.15;21.05;;;;;;;1.28;74.90;99798.06;339605;29;1100;-70
2023/03/03 01:00:55;;;;;;;41.97;21.20;;;;;;;1.32;74.36;99806.63;339288;29;1180;-73
2023/03/03 01:01:07;;;;;;;43.88;21.40;;;;;;;1.32;74.36;99807.50;339441;29;1269;-71
2023/03/03 01:01:19;;;;;;;45.13;21.10;;;;;;;1.34;74.30;99799.81;339408;29;1040;-70
2023/03/03 01:01:32;;;;;;;43.30;20.58;;;;;;;1.14;75.60;99807.34;339404;29;1092;-70
2023/03/03 01:01:44;;;;;;;43.30;20.83;;;;;;;1.06;75.97;99804.72;339407;29;1163;-71
2023/03/03 01:01:56;;;;;;;43.75;21.25;;;;;;;0.96;76.00;99803.78;338905;29;1708;-71
2023/03/03 01:02:08;;;;;;;42.17;20.90;;;;;;;0.79;76.79;99801.09;339639;29;1590;-71
2023/03/03 01:02:20;;;;;;;42.88;20.35;;;;;;;0.70;77.47;99811.22;341083;28;1034;-71
2023/03/03 01:02:32;;;;;;;43.75;19.85;;;;;;;0.57;77.40;99809.41;338350;29;1076;-70
2023/03/03 01:02:45;;;;;;;43.38;20.13;;;;;;;0.66;77.30;99813.75;340802;28;1359;-71
2023/03/03 01:03:01;;;;;;;45.10;20.25;;;;;;;0.77;78.16;99815.56;342209;28;1035;-71
2023/03/03 01:03:16;;;;;;;42.63;20.25;;;;;;;0.82;77.89;99812.19;342093;28;1018;-71
2023/03/03 01:03:31;;;;;;;43.13;20.85;;;;;;;0.72;77.79;99814.66;342861;28;825;-72
2023/03/03 01:03:43;;;;;;;46.45;21.05;;;;;;;0.58;77.79;99813.66;341927;28;1284;-74
2023/03/03 01:03:55;;;;;;;44.65;20.77;;;;;;;0.57;77.69;99814.50;340691;29;1183;-73
2023/03/03 01:04:07;;;;;;;44.15;21.15;;;;;;;0.61;78.47;99811.16;341110;29;1127;-70
2023/03/03 01:04:19;;;;;;;44.22;20.90;;;;;;;0.64;78.47;99816.28;340859;29;1259;-70
2023/03/03 01:04:31;;;;;;;42.85;20.73;;;;;;;0.66;77.95;99814.59;341060;28;1035;-72
2023/03/03 01:04:49;;;;;;;42.45;20.50;;;;;;;0.66;78.39;99814.59;340426;29;999;-70
2023/03/03 01:05:01;;;;;;;41.88;20.65;;;;;;;0.71;78.08;99818.06;338553;29;1289;-70
2023/03/03 01:05:15;;;;;;;40.92;20.50;;;;;;;0.64;77.91;99812.88;338855;29;1286;-70
2023/03/03 01:05:27;;;;;;;43.47;21.13;;;;;;;0.62;77.95;99812.84;339628;29;1031;-70
2023/03/03 01:05:40;;;;;;;45.27;21.90;;;;;;;0.60;77.31;99822.19;339547;29;1680;-70
2023/03/03 01:05:53;;;;;;;47.28;22.58;;;;;;;0.67;77.16;99816.31;339610;29;1205;-70
2023/03/03 01:06:05;;;;;;;49.17;23.27;;;;;;;0.73;77.77;99811.25;339672;29;1028;-73
2023/03/03 01:06:17;;;;;;;47.85;23.77;;;;;;;0.76;77.66;99813.00;339887;29;1044;-73
2023/03/03 01:06:29;;;;;;;46.03;23.00;;;;;;;0.76;76.86;99816.41;339542;29;1065;-73
2023/03/03 01:06:41;;;;;;;46.78;22.75;;;;;;;0.85;77.14;99809.69;338978;29;1323;-73
2023/03/03 01:06:53;;;;;;;46.72;22.08;;;;;;;0.83;77.37;99821.59;339012;29;1146;-73
2023/03/03 01:07:05;;;;;;;45.85;21.80;;;;;;;0.82;76.39;99815.59;338991;29;1601;-73
2023/03/03 01:07:17;;;;;;;41.70;21.55;;;;;;;0.87;76.50;99813.09;340354;29;1761;-73
2023/03/03 01:07:29;;;;;;;42.17;21.48;;;;;;;0.85;76.24;99819.91;340637;29;1076;-71
2023/03/03 01:07:44;;;;;;;43.10;21.42;;;;;;;0.83;75.51;99812.22;339227;29;1212;-71
2023/03/03 01:07:56;;;;;;;41.40;21.50;;;;;;;0.81;75.30;99816.47;339411;29;1246;-70
2023/03/03 01:08:09;;;;;;;41.42;22.02;;;;;;;0.82;75.63;99809.63;339412;29;1205;-70
2023/03/03 01:08:21;;;;;;;43.70;22.10;;;;;;;0.83;75.20;99816.47;339652;29;1254;-70
2023/03/03 01:08:36;;;;;;;45.75;21.38;;;;;;;0.84;75.08;99813.06;339379;29;1195;-71
2023/03/03 01:08:48;;;;;;;44.80;20.45;;;;;;;0.87;75.17;99813.09;339284;29;1162;-70
2023/03/03 01:09:00;;;;;;;43.83;20.58;;;;;;;0.89;74.97;99807.16;339140;29;1562;-74
2023/03/03 01:09:12;;;;;;;44.30;21.20;;;;;;;0.94;74.90;99807.19;339904;29;1052;-73
2023/03/03 01:09:24;;;;;;;46.05;21.48;;;;;;;0.93;74.83;99806.34;340712;28;1337;-74
2023/03/03 01:09:36;;;;;;;43.13;20.83;;;;;;;0.95;74.90;99806.34;340863;28;1306;-74
2023/03/03 01:09:48;;;;;;;41.80;20.38;;;;;;;0.97;75.46;99814.91;340034;28;1962;-74
2023/03/03 01:10:02;;;;;;;41.97;20.77;;;;;;;1.00;75.33;99809.78;339684;29;1202;-74
2023/03/03 01:10:15;;;;;;;42.30;21.23;;;;;;;0.98;75.45;99811.47;339461;29;1262;-71
2023/03/03 01:10:29;;;;;;;42.40;20.77;;;;;;;0.97;75.44;99804.66;339595;29;1338;-71
2023/03/03 01:10:51;;;;;;;44.78;21.15;;;;;;;0.95;76.04;99806.34;339479;29;1055;-71
2023/03/03 01:11:15;;;;;;;47.58;22.10;;;;;;;0.89;75.79;99811.41;339536;29;1250;-71
2023/03/03 01:11:28;;;;;;;46.72;22.58;;;;;;;0.89;76.13;99808.88;339616;29;1075;-71
2023/03/03 01:11:39;;;;;;;44.95;22.75;;;;;;;0.87;76.02;99808.00;339553;29;1085;-73
2023/03/03 01:11:51;;;;;;;45.65;22.80;;;;;;;0.82;75.76;99804.50;339357;29;1274;-76
2023/03/03 01:12:04;;;;;;;43.75;22.65;;;;;;;0.79;75.42;99816.44;338983;29;1563;-75
2023/03/03 01:12:16;;;;;;;44.58;22.60;;;;;;;0.66;75.82;99814.59;338760;29;1064;-73
2023/03/03 01:12:28;;;;;;;45.00;22.35;;;;;;;0.54;75.86;99812.78;340774;28;1132;-74
2023/03/03 01:12:40;;;;;;;45.38;22.00;;;;;;;0.45;75.57;99814.38;340751;28;1080;-72
2023/03/03 01:12:53;;;;;;;46.00;21.77;;;;;;;0.51;76.10;99811.91;339515;28;1148;-70
2023/03/03 01:13:06;;;;;;;45.60;21.98;;;;;;;0.51;76.20;99814.44;339442;29;1144;-71
2023/03/03 01:13:20;;;;;;;44.22;22.13;;;;;;;0.47;76.18;99812.72;339576;29;1058;-71
2023/03/03 01:13:36;;;;;;;45.20;22.23;;;;;;;0.52;76.17;99808.47;339462;29;1266;-70
2023/03/03 01:13:50;;;;;;;45.38;22.27;;;;;;;0.45;75.99;99812.69;339355;29;1280;-70
2023/03/03 01:14:02;;;;;;;43.03;21.52;;;;;;;0.42;75.94;99811.78;339606;29;1194;-71
2023/03/03 01:14:14;;;;;;;43.20;21.70;;;;;;;0.39;76.11;99810.91;339482;29;1058;-70
2023/03/03 01:14:26;;;;;;;42.20;21.10;;;;;;;0.40;75.78;99804.09;339532;29;1063;-70
2023/03/03 01:14:38;;;;;;;44.50;20.98;;;;;;;0.45;75.63;99807.56;339881;29;1059;-72
2023/03/03 01:14:51;;;;;;;44.35;21.65;;;;;;;0.47;75.46;99810.16;339584;29;1290;-72
2023/03/03 01:15:06;;;;;;;43.10;21.80;;;;;;;0.53;76.04;99808.50;339459;29;1058;-73
2023/03/03 01:15:18;;;;;;;45.70;21.58;;;;;;;0.60;76.09;99809.41;339268;29;1175;-74
2023/03/03 01:15:30;;;;;;;45.63;21.58;;;;;;;0.60;76.25;99809.41;339643;29;1066;-73